Friday, February 23, 2018, 3:09 PM EST
Back to Local

KUUU, Newport State Airport

Location: Middletown, RI, United States Lat: 41.533
Local Time: 3:09 PM EST (20:09 GMT) Lon: -71.283
Time Zone: US/Eastern Elev: 170 ft

Show me the last for .
Show Decoded

2018-02-23 15:01 METAR KUUU 232001Z AUTO 12005KT 10SM BKN027 OVC032 03/01 A3047 RMK AO2 RAE00
                 P0000 T00280011 =
2018-02-23 14:53 METAR KUUU 231953Z AUTO 12008KT 5SM -RA BR BKN030 BKN038 OVC050 03/01 A3047 RMK
                 AO2 UPB35E38 SLP317 P0002 T00280011 =
2018-02-23 13:53 METAR KUUU 231853Z AUTO 13006KT 10SM -RA FEW026 OVC036 03/01 A3052 RMK AO2
                 SLP336 P0001 T00330011 =
2018-02-23 12:53 METAR KUUU 231753Z AUTO 14008KT 10SM -RA FEW024 BKN060 OVC075 04/00 A3054 RMK
                 AO2 RAB45 PRESFR SLP341 P0001 60001 T00390000 10050 20000 58033 =
2018-02-23 11:53 METAR KUUU 231653Z AUTO 11007KT 10SM OVC085 04/M02 A3059 RMK AO2 SLP358
                 T00441022 =
2018-02-23 10:53 METAR KUUU 231553Z AUTO 10012KT 10SM BKN095 04/M02 A3060 RMK AO2 SLP364
                 T00441022 =
2018-02-23 09:53 METAR KUUU 231453Z AUTO 10008KT 10SM FEW110 04/M02 A3063 RMK AO2 SLP374
                 T00441017 58015 =
2018-02-23 08:53 METAR KUUU 231353Z AUTO 07005KT 10SM FEW110 03/M01 A3067 RMK AO2 SLP384
                 T00331006 =
2018-02-23 07:53 METAR KUUU 231253Z AUTO 03006KT 10SM CLR 02/00 A3067 RMK AO2 SLP387 T00170000 =
2018-02-23 06:53 METAR KUUU 231153Z AUTO 03005KT 10SM SCT009 00/M01 A3068 RMK AO2 SLP389 70007
                 T00001006 10011 21006 51007 =
2018-02-23 05:53 METAR KUUU 231053Z AUTO 02005KT 10SM FEW007 00/M01 A3067 RMK AO2 SLP388
                 T00001006 =
2018-02-23 05:20 METAR KUUU 231020Z AUTO 03007KT 10SM SCT008 01/M01 A3066 RMK AO2 T00061006 =
2018-02-23 05:13 METAR KUUU 231013Z AUTO 03006KT 10SM BKN008 01/M01 A3065 RMK AO2 T00061006 =
2018-02-23 04:53 METAR KUUU 230953Z AUTO 02007KT 10SM FEW006 01/00 A3066 RMK AO2 SLP384 T00060000
                 =
2018-02-23 04:17 METAR KUUU 230917Z AUTO 01005KT 10SM SCT006 01/M01 A3067 RMK AO2 T00061006 =
2018-02-23 03:53 METAR KUUU 230853Z AUTO 02004KT 10SM SCT050 01/M01 A3066 RMK AO2 SLP382
                 T00061006 58006 =
2018-02-23 02:53 METAR KUUU 230753Z AUTO 02004KT 10SM FEW009 BKN050 01/00 A3066 RMK AO2 SLP383
                 T00060000 =
2018-02-23 02:46 METAR KUUU 230746Z AUTO 02003KT 10SM SCT009 BKN050 01/00 A3066 RMK AO2 T00060000
                 =
2018-02-23 02:27 METAR KUUU 230727Z AUTO 04004KT 10SM BKN009 OVC050 01/00 A3066 RMK AO2 T00060000
                 =
2018-02-23 02:04 METAR KUUU 230704Z AUTO 01004KT 10SM OVC010 01/00 A3068 RMK AO2 CIG 007V012
                 T00110000 =
2018-02-23 01:53 METAR KUUU 230653Z AUTO 01004KT 10SM OVC009 01/00 A3068 RMK AO2 CIG 007V013
                 SLP389 T00110000 =
2018-02-23 01:44 METAR KUUU 230644Z AUTO 36004KT 10SM OVC009 01/00 A3068 RMK AO2 CIG 007V013
                 T00110000 =
2018-02-23 00:53 METAR KUUU 230553Z AUTO 03005KT 10SM BKN011 OVC016 01/M01 A3067 RMK AO2 CIG
                 008V013 SLP387 T00111006 10011 20000 50007 =
2018-02-23 00:47 METAR KUUU 230547Z AUTO 04005KT 10SM BKN009 BKN016 OVC022 01/M01 A3067 RMK AO2
                 CIG 009V012 =
2018-02-23 00:42 METAR KUUU 230542Z AUTO 03006KT 10SM BKN011 OVC022 01/00 A3068 RMK AO2 T00110000
                 =
2018-02-22 23:53 METAR KUUU 230453Z AUTO 36004KT 10SM OVC008 01/M01 A3068 RMK AO2 SLP390
                 T00061006 401390000 =
2018-02-22 23:15 METAR KUUU 230415Z AUTO 36006KT 10SM OVC009 01/M01 A3068 RMK AO2 CIG 008V014
                 T00061006 =
2018-02-22 22:53 METAR KUUU 230353Z AUTO 04005KT 10SM OVC011 01/M01 A3067 RMK AO2 SLP387
                 T00061006 =
2018-02-22 22:26 METAR KUUU 230326Z AUTO 04006KT 10SM BKN012 OVC040 01/M01 A3068 RMK AO2
                 T00061006 =
2018-02-22 22:02 METAR KUUU 230302Z AUTO 03006KT 10SM FEW009 OVC040 01/M01 A3066 RMK AO2
                 T00061006 =
2018-02-22 21:53 METAR KUUU 230253Z AUTO 03006KT 10SM OVC039 01/M01 A3065 RMK AO2 SLP380
                 T00061006 55004 =
2018-02-22 21:44 METAR KUUU 230244Z AUTO 03006KT 10SM FEW009 OVC039 01/M01 A3065 RMK AO2
                 T00061006 =
2018-02-22 20:53 METAR KUUU 230153Z AUTO 02003KT 10SM BKN037 BKN085 00/M01 A3065 RMK AO2 SLP379
                 T00001011 =
2018-02-22 19:53 METAR KUUU 230053Z AUTO 08006KT 10SM SCT042 OVC080 01/M01 A3063 RMK AO2 SLP374
                 T00061011 =
2018-02-22 18:53 METAR KUUU 222353Z AUTO 05006KT 10SM OVC041 01/M01 A3066 RMK AO2
                 RAB01E10UPB24E42SNE24 SLP384 P0001 60007 T00061011 10056 20006 51024 =
2018-02-22 17:53 METAR KUUU 222253Z AUTO 04010KT 5SM -SN BR SCT041 SCT050 OVC080 01/M01 A3065 RMK
                 AO2 RAE2158B14E25UPB2158E44SNB44 SLP381 P0001 T00061011 =
2018-02-22 16:53 METAR KUUU 222153Z AUTO 04007KT 4SM -RA BR BKN048 OVC070 02/01 A3062 RMK AO2
                 RAB02 SLP369 P0005 T00170006 =
2018-02-22 16:32 METAR KUUU 222132Z AUTO 04008KT 4SM -RA BR BKN048 OVC060 02/00 A3062 RMK AO2
                 RAB02 P0004 T00170000 =
2018-02-22 16:21 METAR KUUU 222121Z AUTO 02009KT 2 1/2SM RA OVC055 02/M01 A3062 RMK AO2 RAB02
                 P0003 T00221006 =
2018-02-22 15:53 METAR KUUU 222053Z AUTO 05011KT 10SM OVC060 04/M03 A3059 RMK AO2 SLP359
                 T00391033 53003 =

Support USWX by starting your Amazon purchase here.